Archival Weather

Downtown Manhattan/Wall St

New York, Downtown Manhattan/Wall St (KJRB)

Report from: Friday, February 23, 2024 10:56 AM EST
Current time: Wednesday, May 29, 2024 7:56 PM EDT

Current weather – Weather history – Daily summaries
Weather forecast

Present weatherMist
Temperature7.2°C (45.0°F)
Wind chill5.5°C (41.8°F)
Dew point5.0°C (41.0°F)
Winds 5 kts (2.6 m/s, 5.8 mph) West (270°)
Visibility6 mi. (9.7 km)
Clouds Ceiling: Overcast 4,400 ft. (1,341 m)
Altimeter29.53 in.Hg (1000 mB)
Relative humidity86 %
Density altitude-351 ft. (-107 m)
Sea-level pressure100.0 kPa (1000 mB, 29.52 in.Hg)
Remarks Fully automated report
System requires maintenance
Automated weather observing station with precipitation discriminator
Precipitation sensor not operating
Flight conditions Visual Meteorological Conditions
Raw dataKJRB 231556Z AUTO 27005KT 6SM BR OVC044 07/05 A2953 RMK AO2 SLP998 T00720050 PNO $
An error has occurred. This application may no longer respond until reloaded. Reload 🗙